Time;durP1;ratioP1;P1;durP2;ratioP2;P2;SDS_P1;SDS_P2;PMS_P1;PMS_P2;Temp;Humidity;BMP_temperature;BMP_pressure;BME280_temperature;BME280_humidity;BME280_pressure;Samples;Min_cycle;Max_cycle;Signal;HPM_P1;HPM_P2
2023/12/17 00:01:17;;;;;;;16.52;9.90;;;11.60;78.60;;;;;;5069590;28;20038;-57
2023/12/17 00:03:43;;;;;;;11.13;9.55;;;11.60;78.60;;;;;;5069832;28;20297;-55
2023/12/17 00:06:14;;;;;;;12.82;10.80;;;11.60;78.60;;;;;;5068198;28;20044;-56
2023/12/17 00:08:48;;;;;;;14.23;10.65;;;11.60;78.60;;;;;;5068471;28;20040;-56
2023/12/17 00:11:19;;;;;;;12.27;10.27;;;11.60;78.80;;;;;;5070205;28;20037;-57
2023/12/17 00:13:46;;;;;;;14.45;9.85;;;11.50;78.80;;;;;;5069650;28;20044;-56
2023/12/17 00:16:13;;;;;;;13.95;9.35;;;11.60;78.80;;;;;;5063772;28;20052;-57
2023/12/17 00:18:40;;;;;;;13.20;9.80;;;11.60;78.90;;;;;;5069980;28;20068;-57
2023/12/17 00:21:06;;;;;;;12.75;9.88;;;11.60;78.80;;;;;;5070045;28;20044;-56
2023/12/17 00:23:33;;;;;;;12.60;10.10;;;11.60;78.80;;;;;;5061655;28;20040;-54
2023/12/17 00:26:00;;;;;;;11.80;9.15;;;11.60;78.80;;;;;;5066746;28;20036;-55
2023/12/17 00:28:30;;;;;;;12.90;9.73;;;11.60;78.80;;;;;;5069037;28;20052;-53
2023/12/17 00:30:57;;;;;;;15.77;11.32;;;11.60;78.90;;;;;;5067906;28;20052;-56
2023/12/17 00:33:33;;;;;;;11.80;9.50;;;11.60;79.00;;;;;;5062667;28;20055;-56
2023/12/17 00:36:03;;;;;;;12.05;9.32;;;11.60;78.90;;;;;;5069402;28;20101;-54
2023/12/17 00:38:32;;;;;;;;;;;11.60;79.10;;;;;;5062985;28;20041;-56
2023/12/17 00:41:01;;;;;;;11.20;8.95;;;11.60;79.70;;;;;;5064786;28;19928;-56
2023/12/17 00:43:28;;;;;;;11.27;9.25;;;11.60;78.60;;;;;;5069339;28;20032;-56
2023/12/17 00:45:59;;;;;;;11.13;8.90;;;11.60;78.70;;;;;;5069928;28;20055;-55
2023/12/17 00:48:29;;;;;;;13.38;9.32;;;11.60;78.80;;;;;;5067688;28;20094;-57
2023/12/17 00:50:57;;;;;;;11.82;9.95;;;11.60;79.00;;;;;;5066561;28;20037;-56
2023/12/17 00:53:27;;;;;;;11.85;10.20;;;11.60;79.10;;;;;;5066771;28;20136;-56
2023/12/17 00:55:53;;;;;;;13.60;10.30;;;11.60;79.20;;;;;;5064675;28;20033;-56
2023/12/17 00:58:32;;;;;;;14.13;10.68;;;11.60;79.20;;;;;;5066935;28;20048;-56
2023/12/17 01:01:01;;;;;;;11.95;10.27;;;11.60;79.30;;;;;;5069904;28;20624;-57
2023/12/17 01:03:32;;;;;;;10.82;9.38;;;11.60;79.20;;;;;;5061892;28;20044;-57
2023/12/17 01:06:01;;;;;;;12.77;10.18;;;11.60;79.20;;;;;;5068360;28;20041;-55
2023/12/17 01:08:28;;;;;;;11.95;10.43;;;11.60;79.30;;;;;;5063959;28;20076;-57
2023/12/17 01:10:57;;;;;;;13.57;10.70;;;11.60;79.30;;;;;;5069763;28;20082;-55
2023/12/17 01:13:23;;;;;;;12.10;10.70;;;11.60;79.40;;;;;;5068456;28;20119;-53
2023/12/17 01:15:54;;;;;;;11.18;9.68;;;11.60;79.30;;;;;;5067313;28;20044;-57
2023/12/17 01:18:21;;;;;;;12.05;10.00;;;11.60;79.40;;;;;;5065223;28;20051;-57
2023/12/17 01:20:51;;;;;;;11.48;10.32;;;11.60;79.40;;;;;;5069498;28;20046;-54
2023/12/17 01:23:18;;;;;;;12.63;9.40;;;11.60;79.40;;;;;;5066887;28;20040;-53
2023/12/17 01:25:47;;;;;;;13.50;10.40;;;11.60;79.40;;;;;;5064353;28;20086;-55
2023/12/17 01:28:17;;;;;;;12.70;9.52;;;11.70;79.50;;;;;;5069109;28;20041;-54
2023/12/17 01:30:46;;;;;;;11.32;10.13;;;11.60;79.10;;;;;;5067940;28;20075;-55
2023/12/17 01:33:12;;;;;;;12.27;10.50;;;11.70;79.20;;;;;;5061273;28;20098;-55
2023/12/17 01:35:42;;;;;;;12.30;10.45;;;11.60;79.20;;;;;;5068803;28;20098;-56
2023/12/17 01:38:11;;;;;;;12.35;10.05;;;11.60;79.20;;;;;;5069001;28;20128;-53
2023/12/17 01:40:39;;;;;;;13.63;11.25;;;11.60;79.20;;;;;;5065013;28;20048;-56
2023/12/17 01:43:09;;;;;;;12.68;10.15;;;11.60;79.40;;;;;;5065591;28;20040;-57
2023/12/17 01:45:35;;;;;;;10.77;9.68;;;11.70;79.50;;;;;;5061464;28;20068;-55
2023/12/17 01:48:03;;;;;;;16.38;11.07;;;11.60;79.40;;;;;;5069415;28;20060;-54
2023/12/17 01:50:31;;;;;;;13.57;10.00;;;11.60;79.40;;;;;;5068844;28;20521;-55
2023/12/17 01:53:02;;;;;;;11.32;9.98;;;11.60;79.40;;;;;;5071360;28;20115;-56
2023/12/17 01:55:28;;;;;;;15.15;11.13;;;11.70;79.30;;;;;;5067438;28;20060;-56
2023/12/17 01:57:56;;;;;;;13.27;10.55;;;11.70;79.40;;;;;;5070138;28;20043;-52
2023/12/17 02:00:28;;;;;;;16.20;10.98;;;11.60;79.40;;;;;;5071005;28;20102;-55
2023/12/17 02:02:55;;;;;;;;;;;11.60;79.30;;;;;;5072583;28;20037;-57
2023/12/17 02:05:22;;;;;;;10.73;8.75;;;11.70;79.90;;;;;;5071844;28;19920;-54
2023/12/17 02:07:49;;;;;;;12.68;10.30;;;11.70;79.00;;;;;;5066448;28;20056;-55
2023/12/17 02:10:15;;;;;;;14.57;10.63;;;11.70;79.10;;;;;;5071991;28;20040;-57
2023/12/17 02:12:44;;;;;;;13.50;11.65;;;11.70;79.10;;;;;;5072218;28;20502;-52
2023/12/17 02:15:13;;;;;;;12.82;10.82;;;11.60;79.10;;;;;;5071604;28;20639;-55
2023/12/17 02:17:42;;;;;;;15.10;11.07;;;11.70;79.20;;;;;;5068093;28;20048;-57
2023/12/17 02:20:10;;;;;;;15.52;11.60;;;11.70;79.20;;;;;;5071906;28;20036;-52
2023/12/17 02:22:38;;;;;;;16.42;11.18;;;11.60;79.20;;;;;;5072078;28;20071;-52
2023/12/17 02:25:10;;;;;;;13.57;10.93;;;11.60;79.30;;;;;;5065737;28;20544;-56
2023/12/17 02:27:39;;;;;;;12.60;9.73;;;11.60;79.40;;;;;;5072090;28;20033;-55
2023/12/17 02:30:07;;;;;;;12.43;10.00;;;11.60;79.30;;;;;;5071253;28;20040;-55
2023/12/17 02:32:35;;;;;;;13.05;10.30;;;11.60;79.30;;;;;;5070704;28;20037;-56
2023/12/17 02:35:03;;;;;;;13.68;11.05;;;11.60;79.30;;;;;;5060566;28;20044;-55
2023/12/17 02:37:34;;;;;;;15.18;11.25;;;11.60;79.40;;;;;;5071282;28;20074;-56
2023/12/17 02:40:01;;;;;;;13.30;10.60;;;11.60;79.50;;;;;;5071784;28;20044;-53
2023/12/17 02:42:29;;;;;;;13.93;11.05;;;11.60;79.60;;;;;;5066410;28;20040;-55
2023/12/17 02:44:56;;;;;;;13.57;10.73;;;11.60;79.50;;;;;;5071334;28;20074;-54
2023/12/17 02:47:26;;;;;;;13.93;10.70;;;11.60;79.60;;;;;;5071603;28;20037;-53
2023/12/17 02:49:56;;;;;;;13.25;10.65;;;11.70;79.50;;;;;;5070713;28;20041;-52
2023/12/17 02:52:28;;;;;;;11.93;10.00;;;11.70;79.40;;;;;;5069714;28;20040;-57
2023/12/17 02:54:58;;;;;;;13.65;9.35;;;11.70;79.30;;;;;;5063970;28;20068;-55
2023/12/17 02:57:26;;;;;;;14.93;10.63;;;11.70;79.40;;;;;;5069309;28;20451;-55
2023/12/17 02:59:54;;;;;;;11.57;9.48;;;11.70;79.40;;;;;;5069250;28;20060;-55
2023/12/17 03:02:24;;;;;;;11.10;9.45;;;11.70;79.40;;;;;;5071266;28;20226;-53
2023/12/17 03:04:51;;;;;;;11.90;9.45;;;11.70;79.40;;;;;;5068809;28;20032;-57
2023/12/17 03:07:20;;;;;;;12.30;9.35;;;11.70;79.40;;;;;;5069350;28;20051;-56
2023/12/17 03:09:47;;;;;;;11.65;9.18;;;11.60;79.20;;;;;;5071279;28;20071;-56
2023/12/17 03:12:21;;;;;;;11.10;8.85;;;11.60;79.20;;;;;;5071192;28;20040;-52
2023/12/17 03:14:48;;;;;;;;;;;11.60;79.10;;;;;;5065529;28;20697;-56
2023/12/17 03:17:18;;;;;;;10.18;8.57;;;11.70;79.60;;;;;;5070770;28;20411;-53
2023/12/17 03:19:47;;;;;;;11.68;9.23;;;11.70;78.80;;;;;;5070694;28;20068;-56
2023/12/17 03:22:14;;;;;;;11.63;9.45;;;11.70;78.90;;;;;;5065986;28;20119;-55
2023/12/17 03:24:41;;;;;;;13.18;9.32;;;11.60;78.80;;;;;;5063247;28;20122;-54
2023/12/17 03:27:08;;;;;;;11.65;9.35;;;11.60;79.00;;;;;;5071077;28;20036;-53
2023/12/17 03:29:37;;;;;;;12.35;9.75;;;11.60;78.90;;;;;;5069922;28;20119;-57
2023/12/17 03:32:07;;;;;;;12.95;10.18;;;11.60;78.90;;;;;;5066149;28;20143;-52
2023/12/17 03:34:37;;;;;;;13.02;10.10;;;11.60;78.90;;;;;;5070500;28;20445;-52
2023/12/17 03:37:08;;;;;;;11.90;9.48;;;11.50;79.00;;;;;;5070244;28;20047;-52
2023/12/17 03:39:36;;;;;;;12.20;9.73;;;11.50;78.80;;;;;;5069777;28;20085;-56
2023/12/17 03:42:05;;;;;;;12.35;9.52;;;11.50;78.80;;;;;;5066707;28;20048;-52
2023/12/17 03:44:37;;;;;;;12.65;9.73;;;11.50;79.10;;;;;;5069707;28;20072;-55
2023/12/17 03:47:04;;;;;;;12.27;9.40;;;11.50;79.20;;;;;;5070585;28;20094;-56
2023/12/17 03:49:33;;;;;;;17.42;9.32;;;11.50;79.20;;;;;;5067894;28;20064;-53
2023/12/17 03:52:06;;;;;;;11.25;8.60;;;11.50;79.10;;;;;;5070627;28;20041;-56
2023/12/17 03:54:35;;;;;;;12.15;8.95;;;11.50;79.00;;;;;;5066375;28;20048;-53
2023/12/17 03:57:04;;;;;;;11.63;9.07;;;11.50;79.00;;;;;;5068454;28;20471;-53
2023/12/17 03:59:31;;;;;;;9.95;8.77;;;11.40;79.00;;;;;;5067417;28;20422;-53
2023/12/17 04:02:01;;;;;;;11.10;8.95;;;11.40;79.10;;;;;;5070054;28;20748;-57
2023/12/17 04:04:28;;;;;;;14.43;9.43;;;11.40;79.10;;;;;;5069455;28;20044;-57
2023/12/17 04:06:55;;;;;;;11.68;8.52;;;11.40;79.10;;;;;;5066701;28;20064;-56
2023/12/17 04:09:21;;;;;;;10.73;8.82;;;11.40;79.20;;;;;;5068302;28;20056;-57
2023/12/17 04:11:52;;;;;;;10.63;8.85;;;11.40;79.20;;;;;;5069710;28;20063;-55
2023/12/17 04:14:23;;;;;;;10.55;8.45;;;11.40;79.20;;;;;;5061999;28;20040;-56
2023/12/17 04:16:51;;;;;;;13.07;9.55;;;11.40;79.20;;;;;;5066785;28;20043;-54
2023/12/17 04:19:19;;;;;;;9.77;7.65;;;11.40;79.10;;;;;;5069582;28;20131;-55
2023/12/17 04:21:46;;;;;;;11.65;8.75;;;11.40;79.00;;;;;;5069954;28;20051;-57
2023/12/17 04:24:16;;;;;;;12.40;8.18;;;11.30;78.90;;;;;;5067190;28;20036;-53
2023/12/17 04:26:42;;;;;;;12.13;8.63;;;11.30;79.00;;;;;;5069618;28;20110;-57
2023/12/17 04:29:09;;;;;;;11.70;8.35;;;11.30;79.00;;;;;;5069685;28;20120;-54
2023/12/17 04:31:35;;;;;;;11.57;8.48;;;11.30;79.00;;;;;;5069336;28;20123;-57
2023/12/17 04:34:04;;;;;;;11.88;8.02;;;11.30;79.10;;;;;;5065698;28;20114;-55
2023/12/17 04:36:35;;;;;;;11.90;8.95;;;11.30;79.00;;;;;;5069567;28;20044;-57
2023/12/17 04:39:03;;;;;;;11.50;8.60;;;11.30;79.00;;;;;;5069277;28;20571;-56
2023/12/17 04:41:29;;;;;;;10.05;7.32;;;11.30;79.00;;;;;;5068655;28;20529;-56
2023/12/17 04:43:59;;;;;;;8.90;7.55;;;11.30;79.00;;;;;;5066366;28;20136;-54
2023/12/17 04:46:29;;;;;;;10.40;7.32;;;11.30;79.00;;;;;;5069872;28;20068;-55
2023/12/17 04:48:57;;;;;;;10.50;8.32;;;11.20;78.80;;;;;;5069614;28;20973;-56
2023/12/17 04:51:26;;;;;;;11.40;8.25;;;11.20;78.70;;;;;;5066055;28;20049;-56
2023/12/17 04:53:53;;;;;;;11.70;8.23;;;11.20;78.80;;;;;;5067130;28;20443;-55
2023/12/17 04:56:24;;;;;;;13.25;8.80;;;11.20;78.80;;;;;;5068401;28;20054;-53
2023/12/17 04:58:50;;;;;;;10.70;8.23;;;11.20;78.80;;;;;;5063750;28;20075;-56
2023/12/17 05:01:20;;;;;;;11.75;8.90;;;11.20;78.90;;;;;;5069540;28;20086;-56
2023/12/17 05:03:46;;;;;;;10.82;8.05;;;11.10;78.70;;;;;;5067421;28;20040;-56
2023/12/17 05:06:16;;;;;;;10.68;8.00;;;11.10;78.80;;;;;;5069683;28;20071;-57
2023/12/17 05:08:44;;;;;;;11.38;8.48;;;11.10;78.90;;;;;;5067021;28;20502;-57
2023/12/17 05:11:10;;;;;;;10.77;8.38;;;11.10;78.90;;;;;;5069634;28;20051;-57
2023/12/17 05:13:37;;;;;;;13.23;8.40;;;11.10;79.00;;;;;;5068876;28;20056;-57
2023/12/17 05:16:04;;;;;;;10.15;8.38;;;11.10;79.10;;;;;;5066936;28;20082;-56
2023/12/17 05:18:34;;;;;;;11.23;8.27;;;11.00;79.10;;;;;;5076659;22;20140;-56
2023/12/17 05:21:01;;;;;;;10.10;8.07;;;11.00;79.10;;;;;;5054886;28;20041;-54
2023/12/17 05:23:30;;;;;;;11.13;8.93;;;11.00;78.90;;;;;;5055005;28;20519;-58
2023/12/17 05:26:01;;;;;;;11.23;8.65;;;11.00;78.80;;;;;;5061260;28;20040;-58
2023/12/17 05:28:28;;;;;;;11.73;8.85;;;11.00;78.80;;;;;;5058802;28;20132;-58
2023/12/17 05:30:55;;;;;;;10.30;8.07;;;11.00;78.80;;;;;;5052737;28;20107;-58
2023/12/17 05:33:22;;;;;;;12.65;7.97;;;11.00;78.80;;;;;;5047567;28;20048;-59
2023/12/17 05:35:49;;;;;;;10.27;8.13;;;11.00;78.80;;;;;;5052549;28;20064;-58
2023/12/17 05:38:16;;;;;;;9.95;7.70;;;11.00;78.90;;;;;;5052933;28;20045;-57
2023/12/17 05:40:42;;;;;;;10.55;8.63;;;11.00;78.80;;;;;;5034094;28;20114;-58
2023/12/17 05:43:09;;;;;;;10.43;8.13;;;10.90;78.70;;;;;;5052720;28;20033;-57
2023/12/17 05:45:36;;;;;;;12.82;9.00;;;10.90;78.80;;;;;;5052346;28;20064;-59
2023/12/17 05:48:14;;;;;;;11.07;8.68;;;10.90;78.80;;;;;;5051633;28;20041;-58
2023/12/17 05:50:42;;;;;;;10.27;7.65;;;10.90;78.80;;;;;;5047524;28;20638;-57
2023/12/17 05:53:12;;;;;;;11.35;8.63;;;10.90;78.80;;;;;;5051114;28;20037;-56
2023/12/17 05:55:38;;;;;;;10.68;8.23;;;10.90;78.80;;;;;;5046973;28;20071;-58
2023/12/17 05:58:06;;;;;;;11.45;8.90;;;10.90;78.90;;;;;;5050116;28;20099;-57
2023/12/17 06:00:33;;;;;;;12.00;8.23;;;10.90;78.80;;;;;;5048847;28;20130;-58
2023/12/17 06:02:59;;;;;;;10.00;8.20;;;10.90;78.80;;;;;;5052698;28;20426;-55
2023/12/17 06:05:28;;;;;;;11.73;7.60;;;10.90;78.80;;;;;;5052025;28;20045;-58
2023/12/17 06:07:57;;;;;;;13.20;8.52;;;10.80;78.70;;;;;;5046983;28;20462;-57
2023/12/17 06:10:24;;;;;;;13.13;9.15;;;10.80;78.70;;;;;;5052361;28;20064;-56
2023/12/17 06:12:51;;;;;;;11.65;8.57;;;10.80;78.80;;;;;;5051848;28;20134;-56
2023/12/17 06:15:17;;;;;;;12.82;8.73;;;10.80;78.80;;;;;;5051892;28;20095;-57
2023/12/17 06:17:44;;;;;;;11.25;8.73;;;10.80;78.90;;;;;;5049470;28;20045;-59
2023/12/17 06:20:11;;;;;;;11.88;9.48;;;10.80;79.00;;;;;;5051898;28;20063;-57
2023/12/17 06:22:38;;;;;;;12.18;8.63;;;10.70;78.90;;;;;;5052081;28;20045;-56
2023/12/17 06:25:05;;;;;;;11.27;9.00;;;10.80;78.90;;;;;;5049459;28;20061;-57
2023/12/17 06:27:36;;;;;;;13.60;9.52;;;10.70;78.90;;;;;;5048221;28;20037;-57
2023/12/17 06:30:04;;;;;;;13.10;9.20;;;10.70;78.80;;;;;;5051659;28;20055;-60
2023/12/17 06:32:31;;;;;;;13.20;9.60;;;10.70;78.80;;;;;;5051310;28;20029;-59
2023/12/17 06:34:58;;;;;;;13.07;8.90;;;10.70;78.90;;;;;;5047215;28;20040;-59
2023/12/17 06:37:24;;;;;;;13.48;9.27;;;10.70;79.00;;;;;;5051870;28;20510;-59
2023/12/17 06:39:53;;;;;;;11.65;8.73;;;10.70;78.90;;;;;;5051191;28;20049;-59
2023/12/17 06:42:20;;;;;;;12.57;9.45;;;10.70;78.90;;;;;;5034426;28;20733;-59
2023/12/17 06:44:48;;;;;;;10.50;9.02;;;10.70;79.60;;;;;;5051087;28;20041;-58
2023/12/17 06:47:17;;;;;;;12.35;8.68;;;10.70;78.90;;;;;;5051862;28;20045;-58
2023/12/17 06:49:54;;;;;;;11.98;8.73;;;10.70;78.90;;;;;;5048274;28;20037;-59
2023/12/17 06:52:22;;;;;;;12.10;9.32;;;10.70;78.80;;;;;;5050955;28;20410;-59
2023/12/17 06:54:51;;;;;;;12.85;9.07;;;10.70;78.70;;;;;;5048755;28;20051;-58
2023/12/17 06:57:17;;;;;;;11.93;8.95;;;10.70;78.70;;;;;;5032990;28;20041;-60
2023/12/17 06:59:47;;;;;;;13.15;9.77;;;10.70;78.80;;;;;;5051373;28;20041;-58
2023/12/17 07:02:14;;;;;;;15.80;9.50;;;10.70;78.70;;;;;;5034468;28;20101;-59
2023/12/17 07:04:43;;;;;;;13.90;9.82;;;10.70;78.70;;;;;;5051309;28;20116;-60
2023/12/17 07:07:11;;;;;;;14.25;9.45;;;10.70;78.70;;;;;;5049294;28;20051;-57
2023/12/17 07:09:38;;;;;;;14.23;10.07;;;10.70;78.70;;;;;;5051280;28;20116;-59
2023/12/17 07:12:06;;;;;;;12.68;8.98;;;10.70;79.20;;;;;;5051863;28;20041;-59
2023/12/17 07:14:32;;;;;;;13.65;10.13;;;10.70;78.60;;;;;;5047301;28;20529;-60
2023/12/17 07:16:59;;;;;;;15.38;10.35;;;10.60;78.60;;;;;;5047549;28;20033;-59
2023/12/17 07:19:26;;;;;;;13.20;9.77;;;10.60;78.60;;;;;;5051255;28;20086;-59
2023/12/17 07:21:53;;;;;;;13.13;9.75;;;10.70;78.50;;;;;;5051349;28;20041;-59
2023/12/17 07:24:21;;;;;;;13.82;9.07;;;10.70;78.40;;;;;;5048249;28;20048;-59
2023/12/17 07:26:48;;;;;;;16.17;10.70;;;10.60;78.50;;;;;;5051280;28;20124;-59
2023/12/17 07:29:15;;;;;;;13.70;9.93;;;10.60;78.60;;;;;;5033149;28;20037;-60
2023/12/17 07:31:42;;;;;;;14.23;10.60;;;10.60;78.60;;;;;;5051359;28;20094;-59
2023/12/17 07:34:08;;;;;;;14.35;9.68;;;10.60;78.50;;;;;;5048399;28;20040;-59
2023/12/17 07:36:35;;;;;;;13.02;9.80;;;10.60;78.50;;;;;;5051441;28;20041;-57
2023/12/17 07:39:02;;;;;;;13.13;9.48;;;10.60;79.10;;;;;;5050734;28;20094;-58
2023/12/17 07:41:30;;;;;;;13.38;9.60;;;10.60;78.50;;;;;;5049019;28;20102;-58
2023/12/17 07:44:00;;;;;;;11.38;9.25;;;10.60;78.40;;;;;;5050674;28;20099;-59
2023/12/17 07:46:27;;;;;;;14.52;9.52;;;10.60;78.30;;;;;;5050242;28;20411;-59
2023/12/17 07:48:54;;;;;;;13.60;9.82;;;10.60;78.30;;;;;;5050423;28;20160;-59
2023/12/17 07:51:21;;;;;;;14.20;9.57;;;10.60;78.40;;;;;;5042059;28;20037;-59
2023/12/17 07:53:47;;;;;;;14.38;9.73;;;10.60;78.40;;;;;;5047590;28;20037;-58
2023/12/17 07:56:16;;;;;;;12.02;8.98;;;10.60;78.50;;;;;;5050817;28;20095;-58
2023/12/17 07:58:43;;;;;;;14.07;9.90;;;10.60;78.30;;;;;;5048282;28;20435;-58
2023/12/17 08:01:12;;;;;;;16.33;10.77;;;10.60;78.30;;;;;;5050429;28;20102;-58
2023/12/17 08:03:39;;;;;;;17.20;10.77;;;10.60;78.20;;;;;;5050728;28;20522;-59
2023/12/17 08:06:06;;;;;;;17.48;11.35;;;10.60;78.10;;;;;;5047236;28;20045;-60
2023/12/17 08:08:33;;;;;;;17.05;10.60;;;10.60;78.00;;;;;;5045974;28;20051;-59
2023/12/17 08:10:59;;;;;;;16.50;12.05;;;10.60;77.80;;;;;;5032795;28;20064;-59
2023/12/17 08:13:28;;;;;;;19.95;12.93;;;10.60;77.70;;;;;;5050447;28;20407;-58
2023/12/17 08:15:55;;;;;;;19.02;13.43;;;10.60;77.80;;;;;;5032892;28;20084;-59
2023/12/17 08:18:22;;;;;;;19.45;13.32;;;10.60;77.80;;;;;;5050416;28;20102;-59
2023/12/17 08:20:49;;;;;;;19.10;12.50;;;10.60;77.80;;;;;;5050281;28;20559;-58
2023/12/17 08:23:16;;;;;;;16.88;12.43;;;10.60;77.70;;;;;;5048663;28;20045;-59
2023/12/17 08:25:45;;;;;;;18.85;12.68;;;10.60;77.60;;;;;;5048219;28;20509;-59
2023/12/17 08:28:12;;;;;;;18.58;13.27;;;10.60;77.50;;;;;;5050225;28;20065;-59
2023/12/17 08:30:39;;;;;;;20.77;13.88;;;10.60;77.50;;;;;;5050301;28;20069;-60
2023/12/17 08:33:06;;;;;;;20.02;14.25;;;10.50;77.40;;;;;;5048058;28;20037;-59
2023/12/17 08:35:36;;;;;;;18.02;12.48;;;10.50;77.30;;;;;;5045146;28;20041;-58
2023/12/17 08:38:05;;;;;;;15.90;11.60;;;10.50;77.30;;;;;;5050166;28;20525;-60
2023/12/17 08:40:33;;;;;;;17.90;11.82;;;10.50;77.30;;;;;;5045071;28;20047;-58
2023/12/17 08:43:07;;;;;;;16.88;12.02;;;10.50;77.40;;;;;;5047689;28;20087;-58
2023/12/17 08:45:34;;;;;;;16.48;12.10;;;10.50;77.40;;;;;;5048172;28;20438;-59
2023/12/17 08:48:02;;;;;;;15.65;11.63;;;10.50;77.30;;;;;;5050061;28;20045;-59
2023/12/17 08:50:29;;;;;;;18.40;12.30;;;10.50;77.40;;;;;;5049136;28;20045;-58
2023/12/17 08:52:56;;;;;;;15.43;11.55;;;10.50;77.50;;;;;;5047757;28;20554;-60
2023/12/17 08:55:23;;;;;;;15.32;11.27;;;10.50;77.40;;;;;;5046241;28;20040;-58
2023/12/17 08:57:49;;;;;;;15.73;11.07;;;10.50;77.30;;;;;;5051687;28;20041;-58
2023/12/17 09:00:17;;;;;;;16.25;11.60;;;10.60;77.20;;;;;;5053935;28;20049;-59
2023/12/17 09:02:44;;;;;;;17.30;11.65;;;10.60;77.20;;;;;;5051478;28;20076;-59
2023/12/17 09:05:12;;;;;;;14.43;10.63;;;10.60;77.10;;;;;;5050774;28;20048;-59
2023/12/17 09:07:39;;;;;;;13.93;10.18;;;10.60;77.10;;;;;;5054302;28;20099;-58
2023/12/17 09:10:09;;;;;;;15.10;10.45;;;10.50;76.90;;;;;;5053195;28;20984;-58
2023/12/17 09:12:42;;;;;;;12.25;10.10;;;10.60;76.80;;;;;;5052788;28;20159;-57
2023/12/17 09:15:09;;;;;;;12.75;10.23;;;10.60;76.60;;;;;;5052740;28;20094;-60
2023/12/17 09:17:42;;;;;;;14.27;9.85;;;10.50;76.40;;;;;;5053852;28;20087;-58
2023/12/17 09:20:17;;;;;;;10.93;8.23;;;10.50;76.20;;;;;;5053422;28;20043;-58
2023/12/17 09:22:45;;;;;;;13.75;10.10;;;10.50;76.10;;;;;;5050711;28;20051;-59
2023/12/17 09:25:12;;;;;;;13.63;10.05;;;10.50;76.10;;;;;;5048391;28;20083;-58
2023/12/17 09:27:39;;;;;;;13.23;10.00;;;10.40;76.10;;;;;;5053848;28;20547;-58
2023/12/17 09:30:09;;;;;;;13.40;9.52;;;10.40;76.20;;;;;;5053169;28;20037;-59
2023/12/17 09:32:36;;;;;;;13.82;10.40;;;10.30;77.00;;;;;;5052061;28;20102;-59
2023/12/17 09:35:05;;;;;;;13.23;10.55;;;10.30;76.50;;;;;;5051662;28;20033;-59
2023/12/17 09:37:35;;;;;;;14.48;9.45;;;10.30;76.50;;;;;;5053661;28;20151;-58
2023/12/17 09:40:05;;;;;;;12.93;9.18;;;10.40;76.60;;;;;;5053218;28;20052;-59
2023/12/17 09:42:32;;;;;;;13.43;8.85;;;10.30;76.60;;;;;;5051483;28;20033;-56
2023/12/17 09:45:02;;;;;;;13.55;9.50;;;10.30;76.50;;;;;;5052995;28;20112;-58
2023/12/17 09:47:29;;;;;;;12.80;9.65;;;10.30;76.50;;;;;;5053208;28;20438;-58
2023/12/17 09:49:58;;;;;;;12.38;9.50;;;10.30;76.70;;;;;;5050731;28;20048;-59
2023/12/17 09:52:28;;;;;;;14.63;10.18;;;10.20;76.50;;;;;;5053454;28;20121;-57
2023/12/17 09:54:55;;;;;;;14.15;10.25;;;10.20;76.60;;;;;;5047608;28;20041;-59
2023/12/17 09:57:26;;;;;;;15.25;10.45;;;10.20;76.70;;;;;;5050899;28;20447;-59
2023/12/17 09:59:53;;;;;;;12.93;9.90;;;10.30;76.80;;;;;;5052530;28;20065;-60
2023/12/17 10:02:20;;;;;;;13.68;9.98;;;10.20;76.70;;;;;;5053156;28;20033;-59
2023/12/17 10:04:47;;;;;;;15.60;10.35;;;10.20;76.80;;;;;;5052690;28;20037;-57
2023/12/17 10:07:15;;;;;;;13.38;10.35;;;10.30;76.80;;;;;;5050614;28;20040;-58
2023/12/17 10:09:43;;;;;;;13.80;10.48;;;10.20;76.70;;;;;;5051768;28;20087;-56
2023/12/17 10:12:20;;;;;;;15.32;9.68;;;10.30;76.90;;;;;;5052859;28;20075;-59
2023/12/17 10:14:51;;;;;;;13.80;10.23;;;10.20;77.60;;;;;;5052236;28;20041;-57
2023/12/17 10:17:18;;;;;;;12.82;9.10;;;10.20;76.90;;;;;;5049338;28;20041;-56
2023/12/17 10:19:52;;;;;;;14.32;10.23;;;10.20;76.70;;;;;;5052628;28;20410;-58
2023/12/17 10:22:20;;;;;;;12.32;9.80;;;10.30;76.90;;;;;;5052714;28;20040;-59
2023/12/17 10:24:48;;;;;;;11.82;9.00;;;10.30;76.80;;;;;;5046893;28;20502;-59
2023/12/17 10:27:20;;;;;;;13.40;9.82;;;10.30;77.00;;;;;;5034560;28;20102;-58
2023/12/17 10:29:51;;;;;;;14.10;9.70;;;10.30;77.10;;;;;;5052475;28;20032;-59
2023/12/17 10:32:21;;;;;;;13.85;9.75;;;10.30;77.20;;;;;;5050503;28;20502;-58
2023/12/17 10:34:51;;;;;;;12.45;9.18;;;10.30;77.10;;;;;;5049503;28;20044;-57
2023/12/17 10:37:23;;;;;;;15.00;10.30;;;10.30;77.00;;;;;;5052220;28;20098;-59
2023/12/17 10:39:51;;;;;;;13.63;10.23;;;10.30;77.00;;;;;;5052179;28;20510;-58
2023/12/17 10:42:22;;;;;;;12.20;9.48;;;10.30;77.00;;;;;;5049121;28;20095;-57
2023/12/17 10:44:51;;;;;;;11.95;9.85;;;10.40;77.00;;;;;;5052050;28;20044;-59
2023/12/17 10:47:24;;;;;;;15.45;10.15;;;10.30;77.10;;;;;;5052359;28;20083;-55
2023/12/17 10:49:53;;;;;;;15.00;9.37;;;10.40;77.10;;;;;;5051403;28;20107;-60
2023/12/17 10:52:25;;;;;;;13.38;10.68;;;10.40;77.00;;;;;;5049739;28;20803;-58
2023/12/17 10:54:52;;;;;;;14.98;11.10;;;10.40;76.90;;;;;;5045789;28;20025;-57
2023/12/17 10:57:23;;;;;;;16.65;12.30;;;10.50;77.00;;;;;;5050555;28;20041;-58
2023/12/17 10:59:53;;;;;;;15.43;10.77;;;10.50;77.10;;;;;;5047049;28;20047;-58
2023/12/17 11:02:24;;;;;;;19.48;11.00;;;10.50;77.10;;;;;;5051951;28;20508;-59
2023/12/17 11:04:52;;;;;;;17.20;11.80;;;10.50;77.00;;;;;;5051429;28;20131;-57
2023/12/17 11:07:20;;;;;;;17.35;11.73;;;10.50;77.00;;;;;;5049618;28;20129;-59
2023/12/17 11:10:15;;;;;;;18.90;11.27;;;10.60;76.90;;;;;;5048773;28;20040;-60
2023/12/17 11:12:45;;;;;;;15.82;10.63;;;10.60;76.80;;;;;;5045848;28;20045;-58
2023/12/17 11:15:13;;;;;;;18.13;10.82;;;10.70;76.80;;;;;;5049831;28;20041;-58
2023/12/17 11:17:43;;;;;;;19.80;11.52;;;10.80;76.80;;;;;;5047393;28;20426;-58
2023/12/17 11:20:16;;;;;;;20.55;11.48;;;10.80;76.70;;;;;;5051169;28;20045;-59
2023/12/17 11:22:45;;;;;;;16.48;11.07;;;10.90;76.70;;;;;;5051832;28;20041;-58
2023/12/17 11:25:12;;;;;;;16.48;11.25;;;10.90;76.70;;;;;;5044198;28;20072;-58
2023/12/17 11:27:39;;;;;;;18.10;11.35;;;11.00;76.50;;;;;;5051308;28;20029;-58
2023/12/17 11:30:25;;;;;;;16.80;10.68;;;11.10;76.60;;;;;;5051099;28;20098;-59
2023/12/17 11:32:52;;;;;;;14.80;11.57;;;11.10;76.60;;;;;;5042862;28;20056;-58
2023/12/17 11:35:21;;;;;;;18.48;11.23;;;11.20;76.40;;;;;;5045599;28;20047;-59
2023/12/17 11:37:50;;;;;;;17.42;11.27;;;11.20;76.00;;;;;;5051292;28;20044;-58
2023/12/17 11:40:17;;;;;;;17.52;11.85;;;11.30;75.60;;;;;;5048522;28;20087;-59
2023/12/17 11:43:01;;;;;;;16.35;10.73;;;11.30;75.40;;;;;;5031043;28;20604;-58
2023/12/17 11:45:41;;;;;;;17.50;11.00;;;11.30;75.10;;;;;;5050620;28;20131;-59
2023/12/17 11:48:15;;;;;;;18.48;11.23;;;11.30;75.10;;;;;;5051133;28;20033;-57
2023/12/17 11:50:44;;;;;;;15.95;11.10;;;11.40;75.20;;;;;;5046677;28;20503;-59
2023/12/17 11:53:16;;;;;;;18.77;11.10;;;11.30;75.10;;;;;;5049331;28;20059;-59
2023/12/17 11:55:51;;;;;;;14.88;10.65;;;11.40;75.20;;;;;;5048499;28;20041;-58
2023/12/17 11:58:22;;;;;;;15.00;9.93;;;11.40;75.50;;;;;;5046928;28;20044;-59
2023/12/17 12:01:09;;;;;;;15.23;10.25;;;11.40;75.60;;;;;;5050422;28;20044;-58
2023/12/17 12:03:39;;;;;;;16.10;11.30;;;11.40;75.40;;;;;;5050684;28;20119;-60
2023/12/17 12:06:11;;;;;;;12.63;9.77;;;11.40;75.40;;;;;;5050694;28;20039;-59
2023/12/17 12:08:40;;;;;;;13.60;9.98;;;11.40;75.40;;;;;;5044721;28;20044;-58
2023/12/17 12:11:10;;;;;;;17.63;9.57;;;11.50;75.20;;;;;;5047099;28;20059;-59
2023/12/17 12:13:43;;;;;;;18.08;10.38;;;11.50;75.10;;;;;;5050763;28;20040;-59
2023/12/17 12:16:11;;;;;;;15.68;10.23;;;11.50;75.10;;;;;;5050147;28;20060;-58
2023/12/17 12:18:43;;;;;;;14.90;10.07;;;11.50;75.10;;;;;;5035088;28;20084;-58
2023/12/17 12:21:21;;;;;;;14.52;9.07;;;11.50;75.00;;;;;;5050304;28;20036;-58
2023/12/17 12:23:55;;;;;;;18.08;9.93;;;11.60;74.90;;;;;;5045120;28;20041;-59
2023/12/17 12:26:26;;;;;;;16.80;10.43;;;11.60;75.00;;;;;;5049060;28;20129;-59
2023/12/17 12:29:03;;;;;;;16.95;10.07;;;11.60;75.00;;;;;;5050375;28;20033;-57
2023/12/17 12:31:30;;;;;;;18.38;11.10;;;11.60;74.80;;;;;;5049457;28;20713;-59
2023/12/17 12:33:59;;;;;;;14.85;10.20;;;11.60;74.70;;;;;;5047765;28;20132;-58
2023/12/17 12:36:45;;;;;;;19.20;10.70;;;11.60;74.60;;;;;;5049894;28;20049;-58
2023/12/17 12:39:13;;;;;;;20.13;10.35;;;11.60;74.40;;;;;;5050100;28;20128;-59
2023/12/17 12:41:46;;;;;;;12.80;8.50;;;11.60;74.40;;;;;;5048140;28;20036;-58